Tropical Cyclones
[Index]
Main Index Home Page Stock Weather Photos Extreme Storms Discussion Storm News and Storm Chasing Reports Tropical Cyclones / Hurricanes / Typhoons Weather Data and Links Wild Fires / Bushfires Weather Observation Techniques Weather Picture Catalogue Tornado Pictures and Reports Stock Video Footage and DVDs for sale
Season 2006-2007 Tropical Cyclone DORA Track Map
Season 2006-2007 Summaries: [BoM-AU] [JTWC-AU] [JTWC-SIO] [JTWC-SPAC] [JTWC-SH]
<<- Previous TC | JTWC 2006-2007 Season | Next TC ->>

click for intensity scale information  Lat/long Grid: Show Hide

 Date Labels: Show Hide

Joint Typhoon Warning Centre Cyclone Data

Name: DORA

28 Jan 2007 06:00 UTC to 10 Feb 2007 00:00 UTC

    date/time    lat    long     hPa   cat  kts
2007-01-28 06    8.5    66.7    1000         30          
2007-01-28 12    9.1    67.0    1000         30          
2007-01-28 18   10.1    67.5     996         35          
2007-01-29 00   11.1    67.0     996         35          
2007-01-29 06   11.8    66.4     996         35          
2007-01-29 12   12.0    65.9     994    1    40          
2007-01-29 18   12.2    65.5     991    1    45          
2007-01-30 00   12.5    65.3     984    2    55          
2007-01-30 00   12.5    65.3     984    2    55          
2007-01-30 06   12.8    65.4     978    2    60          
2007-01-30 06   12.8    65.4     978    2    60          
2007-01-30 12   13.1    65.5     976    2    65          
2007-01-30 12   13.1    65.5     976    2    65          
2007-01-30 18   13.3    65.7     970    2    70          
2007-01-30 18   13.3    65.7     970    2    70          
2007-01-31 00   13.6    65.8     967    3    75          
2007-01-31 00   13.6    65.8     967    3    75          
2007-01-31 00   13.6    65.8     967    3    75          
2007-01-31 06   13.8    66.0     967    3    75          
2007-01-31 06   13.8    66.0     967    3    75          
2007-01-31 06   13.8    66.0     967    3    75          
2007-01-31 12   14.0    66.1     967    3    75          
2007-01-31 12   14.0    66.1     967    3    75          
2007-01-31 12   14.0    66.1     967    3    75          
2007-01-31 18   14.2    66.3     967    3    75          
2007-01-31 18   14.2    66.3     967    3    75          
2007-01-31 18   14.2    66.3     967    3    75          
2007-02-01 00   14.5    66.6     967    3    75          
2007-02-01 00   14.5    66.6     967    3    75          
2007-02-01 00   14.5    66.6     967    3    75          
2007-02-01 06   14.9    67.2     963    3    80          
2007-02-01 06   14.9    67.2     963    3    80          
2007-02-01 06   14.9    67.2     963    3    80          
2007-02-01 12   15.5    67.6     958    3    85          
2007-02-01 12   15.5    67.6     958    3    85          
2007-02-01 12   15.5    67.6     958    3    85          
2007-02-01 18   16.2    68.2     956    3    90          
2007-02-01 18   16.2    68.2     956    3    90          
2007-02-01 18   16.2    68.2     956    3    90          
2007-02-02 00   16.7    68.3     952    3    95          
2007-02-02 00   16.7    68.3     952    3    95          
2007-02-02 00   16.7    68.3     952    3    95          
2007-02-02 06   17.3    68.3     954    3    90          
2007-02-02 06   17.3    68.3     954    3    90          
2007-02-02 06   17.3    68.3     954    3    90          
2007-02-02 12   17.7    68.1     954    3    90          
2007-02-02 12   17.7    68.1     954    3    90          
2007-02-02 12   17.7    68.1     954    3    90          
2007-02-02 18   18.1    67.9     933    4   110          
2007-02-02 18   18.1    67.9     933    4   110          
2007-02-02 18   18.1    67.9     933    4   110          
2007-02-03 00   18.4    67.7     933    4   110          
2007-02-03 00   18.4    67.7     933    4   110          
2007-02-03 00   18.4    67.7     933    4   110          
2007-02-03 06   18.6    67.4     927    4   115          
2007-02-03 06   18.6    67.4     927    4   115          
2007-02-03 06   18.6    67.4     927    4   115          
2007-02-03 12   18.7    67.2     927    4   115          
2007-02-03 12   18.7    67.2     927    4   115          
2007-02-03 12   18.7    67.2     927    4   115          
2007-02-03 18   18.7    67.1     937    4   115          
2007-02-03 18   18.7    67.1     937    4   115          
2007-02-03 18   18.7    67.1     937    4   115          
2007-02-04 00   18.8    67.0     944    4   105          
2007-02-04 00   18.8    67.0     944    4   105          
2007-02-04 00   18.8    67.0     944    4   105          
2007-02-04 06   18.9    66.9     948    4   100          
2007-02-04 06   18.9    66.9     948    4   100          
2007-02-04 06   18.9    66.9     948    4   100          
2007-02-04 12   19.0    66.8     959    3    85          
2007-02-04 12   19.0    66.8     959    3    85          
2007-02-04 12   19.0    66.8     959    3    85          
2007-02-04 18   19.1    66.6     967    3    75          
2007-02-04 18   19.1    66.6     967    3    75          
2007-02-04 18   19.1    66.6     967    3    75          
2007-02-05 00   19.0    66.3     972    2    70          
2007-02-05 00   19.0    66.3     972    2    70          
2007-02-05 00   19.0    66.3     972    2    70          
2007-02-05 06   19.1    66.0     970    2    70          
2007-02-05 06   19.1    66.0     970    2    70          
2007-02-05 12   19.2    65.6     980    2    60          
2007-02-05 12   19.2    65.6     980    2    60          
2007-02-05 18   19.4    65.3     980    2    60          
2007-02-05 18   19.4    65.3     980    2    60          
2007-02-06 00   19.9    65.2     978    2    60          
2007-02-06 00   19.9    65.2     978    2    60          
2007-02-06 06   20.3    64.8     984    2    55          
2007-02-06 06   20.3    64.8     984    2    55          
2007-02-06 12   20.6    64.4     985    1    50          
2007-02-06 12   20.6    64.4     985    1    50          
2007-02-06 18   21.0    63.9     991    1    45          
2007-02-07 00   21.3    63.3     994    1    40          
2007-02-07 06   21.7    63.1     994    1    40          
2007-02-07 12   22.3    63.3     994    1    40          
2007-02-07 18   23.0    63.5     993    1    40          
2007-02-08 00   23.8    63.3     994    1    40          
2007-02-08 06   24.5    63.2     997         35          
2007-02-08 12   24.9    62.9     997         35          
2007-02-08 18   25.3    62.8     997         35          
2007-02-09 00   25.6    62.5    1000         30          
2007-02-09 06   26.0    62.4    1000         30          
2007-02-09 12   26.5    61.6    1002         25          
2007-02-09 18   26.9    60.7    1002         25          
2007-02-10 00   27.5    59.2    1002         25          
Winds are 1-min average.

Tropical cyclone tracks developed by Michael Bath using data from the Joint Typhoon Warning Centre Best Tracks and Google Maps.


[Australian Severe Weather index] [Copyright Notice] [Email Contacts] [Search This Site] [Privacy Policy]
Document: tropical_cyclone_dora.htm Updated: 28 June 2017